Time;durP1;ratioP1;P1;durP2;ratioP2;P2;SDS_P1;SDS_P2;PMS_P1;PMS_P2;Temp;Humidity;BMP_temperature;BMP_pressure;BME280_temperature;BME280_humidity;BME280_pressure;Samples;Min_cycle;Max_cycle;Signal;HPM_P1;HPM_P2
2022/01/02 00:00:14;;;;;;;;;30.67;24.67;;;;;11.20;70.38;101673.63;5037304;28;45382;-50
2022/01/02 00:02:41;;;;;;;;;31.75;29.75;;;;;11.20;70.59;101679.81;5036887;28;47178;-50
2022/01/02 00:05:12;;;;;;;;;32.50;29.50;;;;;11.21;70.42;101678.00;5036913;28;45272;-51
2022/01/02 00:07:43;;;;;;;;;29.75;25.75;;;;;11.17;70.32;101674.75;5037064;28;45322;-47
2022/01/02 00:10:11;;;;;;;;;39.00;24.25;;;;;11.15;70.46;101675.84;5037403;28;45229;-52
2022/01/02 00:12:43;;;;;;;;;22.00;21.67;;;;;11.12;70.38;101678.75;5036612;28;46190;-53
2022/01/02 00:15:11;;;;;;;;;36.67;28.00;;;;;11.11;70.51;101677.06;5036687;28;45507;-50
2022/01/02 00:17:38;;;;;;;;;29.00;27.25;;;;;11.13;70.55;101669.81;5037287;28;45292;-44
2022/01/02 00:20:11;;;;;;;;;32.00;29.33;;;;;11.12;70.45;101673.44;5036996;28;45456;-44
2022/01/02 00:22:40;;;;;;;;;30.67;30.67;;;;;11.11;70.32;101666.41;5036703;28;46370;-44
2022/01/02 00:25:13;;;;;;;;;36.00;27.33;;;;;11.10;70.14;101662.91;5036772;28;45215;-46
2022/01/02 00:27:41;;;;;;;;;32.33;28.00;;;;;11.07;70.62;101664.97;5036667;28;45283;-46
2022/01/02 00:30:06;;;;;;;;;38.33;28.67;;;;;11.08;70.54;101667.53;5036798;28;45367;-47
2022/01/02 00:32:33;;;;;;;;;22.50;21.00;;;;;11.05;70.31;101665.13;5040031;28;47437;-46
2022/01/02 00:35:00;;;;;;;;;33.67;26.00;;;;;11.13;70.33;101678.66;5040343;28;45250;-44
2022/01/02 00:37:26;;;;;;;;;31.67;26.67;;;;;11.17;70.55;101682.75;5040217;28;45416;-45
2022/01/02 00:39:51;;;;;;;;;28.67;22.33;;;;;11.20;70.37;101678.97;5040408;28;45351;-46
2022/01/02 00:42:31;;;;;;;;;29.00;27.00;;;;;11.20;70.14;101670.97;5040043;28;45445;-48
2022/01/02 00:45:03;;;;;;;;;31.00;25.67;;;;;11.22;70.23;101667.22;5040058;28;45302;-45
2022/01/02 00:47:50;;;;;;;;;34.67;28.00;;;;;11.22;70.03;101672.53;5040344;28;45361;-45
2022/01/02 00:50:37;;;;;;;;;31.33;27.33;;;;;11.20;70.22;101669.16;5040228;28;45348;-46
2022/01/02 00:53:05;;;;;;;;;29.00;24.67;;;;;11.18;69.99;101683.59;5039398;28;46232;-43
2022/01/02 00:55:33;;;;;;;;;27.67;24.00;;;;;11.17;70.25;101682.75;5039843;28;45257;-45
2022/01/02 00:58:05;;;;;;;;;35.75;28.50;;;;;11.19;70.50;101678.13;5039950;28;45338;-45
2022/01/02 01:00:32;;;;;;;;;25.33;24.33;;;;;11.15;70.35;101665.19;5040091;28;45349;-46
2022/01/02 01:03:06;;;;;;;;;31.67;22.00;;;;;11.15;70.41;101657.19;5039512;28;46408;-45
2022/01/02 01:05:34;;;;;;;;;28.00;24.67;;;;;11.15;70.04;101636.75;5039663;28;45452;-47
2022/01/02 01:08:02;;;;;;;;;29.67;25.00;;;;;11.25;70.06;101642.16;5040028;28;45529;-46
2022/01/02 01:10:34;;;;;;;;;22.00;18.33;;;;;11.24;70.13;101640.44;5040094;28;45231;-44
2022/01/02 01:13:03;;;;;;;;;26.33;20.00;;;;;11.24;70.11;101635.97;5040626;28;46323;-45
2022/01/02 01:15:30;;;;;;;;;37.33;27.00;;;;;11.22;69.96;101629.94;5040685;28;45350;-45
2022/01/02 01:17:58;;;;;;;;;27.00;23.00;;;;;11.19;70.29;101624.84;5040815;28;45354;-52
2022/01/02 01:20:27;;;;;;;;;27.67;24.00;;;;;11.18;70.49;101612.53;5039567;28;45358;-55
2022/01/02 01:22:52;;;;;;;;;23.00;21.00;;;;;11.16;70.47;101602.97;5039636;28;45337;-55
2022/01/02 01:25:20;;;;;;;;;28.33;26.00;;;;;11.15;70.39;101590.63;5039470;28;45436;-55
2022/01/02 01:27:47;;;;;;;;;31.67;23.33;;;;;11.12;70.94;101589.06;5039950;28;45313;-55
2022/01/02 01:30:14;;;;;;;;;26.67;23.00;;;;;11.09;70.36;101585.84;5039469;28;45597;-53
2022/01/02 01:32:40;;;;;;;;;25.00;23.00;;;;;11.08;70.57;101592.09;5039384;28;45393;-55
2022/01/02 01:35:08;;;;;;;;;24.67;22.00;;;;;11.08;70.27;101602.75;5021535;28;45307;-54
2022/01/02 01:37:34;;;;;;;;;28.00;24.67;;;;;11.06;70.52;101602.91;5039299;28;45321;-53
2022/01/02 01:40:00;;;;;;;;;31.33;23.00;;;;;11.03;70.63;101610.28;5039543;28;45435;-55
2022/01/02 01:42:36;;;;;;;;;26.00;23.33;;;;;11.06;70.84;101608.22;5038324;28;46149;-54
2022/01/02 01:47:54;;;;;;;;;30.67;24.00;;;;;11.12;70.58;101598.88;5039090;28;45180;-56
2022/01/02 01:50:23;;;;;;;;;27.67;21.33;;;;;11.08;70.49;101592.97;5039385;28;45438;-59
2022/01/02 01:52:48;;;;;;;;;23.67;23.00;;;;;11.05;70.82;101598.56;5039144;28;45350;-54
2022/01/02 01:55:16;;;;;;;;;28.33;23.67;;;;;11.05;70.98;101593.22;5038872;28;45310;-55
2022/01/02 01:57:43;;;;;;;;;31.67;22.33;;;;;11.04;70.87;101591.53;5039003;28;45322;-50
2022/01/02 02:00:14;;;;;;;;;25.67;20.67;;;;;11.02;70.89;101585.50;5039202;28;45311;-55
2022/01/02 02:02:41;;;;;;;;;24.67;24.00;;;;;10.98;71.06;101578.72;5038824;28;46034;-61
2022/01/02 02:05:07;;;;;;;;;23.00;20.00;;;;;10.94;71.20;101569.31;5038965;28;45212;-48
2022/01/02 02:07:40;;;;;;;;;24.00;20.33;;;;;10.98;71.00;101578.72;5039553;28;45378;-50
2022/01/02 02:10:16;;;;;;;;;28.33;22.33;;;;;10.99;70.81;101580.41;5039625;28;45408;-56
2022/01/02 02:12:44;;;;;;;;;24.33;22.00;;;;;10.92;70.88;101572.13;5038959;28;46033;-51
2022/01/02 02:15:11;;;;;;;;;23.33;22.33;;;;;10.89;70.95;101568.88;5038747;28;45239;-54
2022/01/02 02:17:37;;;;;;;;;21.00;20.00;;;;;10.91;71.19;101558.91;5038790;28;45400;-55
2022/01/02 02:20:14;;;;;;;;;24.67;19.33;;;;;10.88;71.01;101551.22;5038646;28;45332;-52
2022/01/02 02:22:46;;;;;;;;;19.00;17.33;;;;;10.89;71.17;101553.72;5038646;28;46443;-52
2022/01/02 02:25:16;;;;;;;;;21.67;18.00;;;;;10.90;70.86;101554.56;5038380;28;45400;-53
2022/01/02 02:27:53;;;;;;;;;30.67;23.00;;;;;10.86;71.17;101548.66;5038556;28;45266;-50
2022/01/02 02:30:20;;;;;;;;;22.00;19.33;;;;;10.83;70.95;101537.41;5038696;28;45295;-54
2022/01/02 02:32:46;;;;;;;;;26.00;19.33;;;;;10.86;71.06;101538.00;5038272;28;45294;-54
2022/01/02 02:35:13;;;;;;;;;20.67;16.00;;;;;10.85;71.22;101533.66;5038404;28;45357;-51
2022/01/02 02:37:43;;;;;;;;;20.00;20.00;;;;;10.85;71.22;101531.00;5038788;28;45385;-54
2022/01/02 02:40:16;;;;;;;;;22.67;19.00;;;;;10.86;71.56;101529.19;5038577;28;45444;-54
2022/01/02 02:42:55;;;;;;;;;25.00;19.00;;;;;10.86;71.17;101526.53;5038209;28;45918;-54
2022/01/02 02:51:12;;;;;;;;;26.00;17.67;;;;;10.79;70.70;101507.59;5038514;28;45244;-55
2022/01/02 02:53:43;;;;;;;;;21.33;17.67;;;;;10.75;71.11;101498.16;5037605;28;45996;-54
2022/01/02 02:56:18;;;;;;;;;25.67;21.33;;;;;10.78;71.14;101497.03;5037251;28;45308;-53
2022/01/02 02:58:45;;;;;;;;;27.00;20.00;;;;;10.79;70.88;101488.09;5038098;28;45351;-54
2022/01/02 03:01:16;;;;;;;;;17.67;15.67;;;;;10.81;70.74;101486.16;5038119;28;45313;-54
2022/01/02 03:03:43;;;;;;;;;19.00;16.00;;;;;10.81;70.70;101491.47;5037978;28;45326;-56
2022/01/02 03:06:11;;;;;;;;;18.33;17.33;;;;;10.81;70.99;101496.78;5037802;28;45421;-51
2022/01/02 03:08:37;;;;;;;;;18.00;17.00;;;;;10.78;70.70;101486.41;5037884;28;45487;-52
2022/01/02 03:11:10;;;;;;;;;16.00;16.00;;;;;10.82;70.80;101487.84;5038178;28;45388;-54
2022/01/02 03:13:36;;;;;;;;;24.00;18.00;;;;;10.80;70.63;101490.63;5037676;28;46261;-53
2022/01/02 03:16:02;;;;;;;;;23.67;19.00;;;;;10.79;70.78;101493.41;5037602;28;45570;-53
2022/01/02 03:18:27;;;;;;;;;21.00;19.00;;;;;10.82;70.76;101493.16;5019638;28;45435;-56
2022/01/02 03:20:53;;;;;;;;;10.00;10.00;;;;;10.82;70.62;101467.38;5038009;28;45349;-52
2022/01/02 03:23:18;;;;;;;;;18.67;16.67;;;;;10.83;70.51;101455.78;5037726;28;46171;-48
2022/01/02 03:25:43;;;;;;;;;22.00;17.00;;;;;10.84;70.84;101452.13;5037605;28;45420;-51
2022/01/02 03:28:09;;;;;;;;;16.33;16.33;;;;;10.83;70.82;101458.44;5037797;28;45322;-49
2022/01/02 03:30:34;;;;;;;;;22.67;18.67;;;;;10.86;70.53;101468.81;5037446;28;45349;-54
2022/01/02 03:33:00;;;;;;;;;22.00;17.00;;;;;10.85;70.87;101493.75;5037297;28;45992;-54
2022/01/02 03:35:25;;;;;;;;;16.33;16.00;;;;;10.85;70.55;101496.41;5037549;28;45307;-54
2022/01/02 03:37:51;;;;;;;;;19.33;14.00;;;;;10.78;70.66;101465.09;5037549;28;45238;-53
2022/01/02 03:40:16;;;;;;;;;14.00;13.33;;;;;10.89;70.50;101481.84;5037750;28;45381;-55
2022/01/02 03:42:42;;;;;;;;;20.67;16.33;;;;;10.96;70.73;101484.84;5037297;28;46245;-55
2022/01/02 03:45:08;;;;;;;;;21.67;16.00;;;;;11.01;70.28;101487.13;5037378;28;45322;-53
2022/01/02 03:47:33;;;;;;;;;19.33;16.33;;;;;11.04;70.42;101482.38;5037385;28;45539;-52
2022/01/02 03:49:59;;;;;;;;;18.67;14.33;;;;;11.09;70.15;101485.50;5037503;28;45416;-54
2022/01/02 03:52:25;;;;;;;;;21.67;15.00;;;;;10.99;70.02;101450.81;5037182;28;45659;-49
2022/01/02 03:54:51;;;;;;;;;16.67;16.00;;;;;11.14;69.77;101464.63;5037280;28;45426;-52
2022/01/02 03:57:16;;;;;;;;;15.33;13.67;;;;;11.14;69.88;101451.31;5037184;28;45298;-54
2022/01/02 03:59:42;;;;;;;;;18.33;14.33;;;;;11.13;70.00;101446.13;5037417;28;45405;-50
2022/01/02 04:02:07;;;;;;;;;19.00;16.00;;;;;11.06;69.81;101434.31;5036902;28;45372;-53
2022/01/02 04:04:32;;;;;;;;;18.33;14.67;;;;;10.86;69.56;101399.59;5037037;28;45411;-50
2022/01/02 04:06:58;;;;;;;;;17.33;13.33;;;;;11.22;69.60;101455.97;5036793;28;45411;-49
2022/01/02 04:09:23;;;;;;;;;19.33;17.00;;;;;11.25;69.66;101461.03;5019290;28;45497;-50
2022/01/02 04:11:49;;;;;;;;;17.00;13.00;;;;;11.24;69.78;101462.00;5037167;28;45374;-52
2022/01/02 04:14:14;;;;;;;;;14.33;12.67;;;;;11.25;69.39;101458.38;5036809;28;45307;-52
2022/01/02 04:16:39;;;;;;;;;16.33;12.00;;;;;11.27;69.17;101451.09;5036968;28;45449;-53
2022/01/02 04:19:05;;;;;;;;;22.00;16.00;;;;;11.28;69.40;101454.59;5036593;28;45651;-51
2022/01/02 04:21:30;;;;;;;;;17.33;14.67;;;;;11.27;69.25;101461.75;5036998;28;45463;-46
2022/01/02 04:23:56;;;;;;;;;27.33;16.33;;;;;11.27;69.41;101448.41;5037065;28;45507;-50
2022/01/02 04:26:21;;;;;;;;;23.33;15.67;;;;;11.26;69.37;101441.41;5036839;28;45175;-44
2022/01/02 04:28:46;;;;;;;;;18.00;14.67;;;;;11.28;69.03;101433.28;5037145;28;45163;-44
2022/01/02 04:31:12;;;;;;;;;17.33;15.67;;;;;11.27;69.35;101420.94;5036770;28;45914;-44
2022/01/02 04:33:38;;;;;;;;;18.00;14.00;;;;;11.28;69.49;101427.97;5036551;28;45366;-43
2022/01/02 04:36:04;;;;;;;;;22.33;16.00;;;;;11.21;68.79;101423.19;5037023;28;45588;-47
2022/01/02 04:38:30;;;;;;;;;17.00;16.33;;;;;11.26;69.04;101432.59;5036712;28;45352;-45
2022/01/02 04:40:55;;;;;;;;;16.00;13.33;;;;;11.30;69.18;101436.66;5036681;28;46244;-47
2022/01/02 04:43:21;;;;;;;;;12.67;12.33;;;;;11.30;69.41;101434.00;5036539;28;45207;-46
2022/01/02 04:45:46;;;;;;;;;16.67;11.00;;;;;11.29;69.28;101430.47;5036755;28;45342;-48
2022/01/02 04:48:12;;;;;;;;;17.00;13.67;;;;;11.26;69.08;101421.94;5036673;28;45406;-47
2022/01/02 04:50:37;;;;;;;;;15.00;12.00;;;;;11.27;69.34;101415.63;5036441;28;45394;-47
2022/01/02 04:53:03;;;;;;;;;20.00;15.67;;;;;11.28;68.97;101409.31;5036550;28;45321;-46
2022/01/02 04:55:28;;;;;;;;;16.00;16.00;;;;;11.28;69.11;101404.81;5036656;28;45270;-47
2022/01/02 04:57:53;;;;;;;;;22.00;17.00;;;;;11.28;69.04;101404.81;5036469;28;45434;-52
2022/01/02 05:00:19;;;;;;;;;16.67;16.67;;;;;11.26;68.98;101400.63;5036451;28;45335;-46
2022/01/02 05:02:45;;;;;;;;;16.00;13.00;;;;;11.27;68.98;101389.81;5036193;28;45259;-47
2022/01/02 05:05:10;;;;;;;;;17.33;13.00;;;;;11.29;69.24;101384.34;5036415;28;45263;-44
2022/01/02 05:07:35;;;;;;;;;15.67;13.67;;;;;11.30;68.86;101383.41;5036527;28;45244;-45
2022/01/02 05:10:01;;;;;;;;;14.00;14.00;;;;;11.30;68.86;101380.75;5036251;28;46604;-46
2022/01/02 05:12:26;;;;;;;;;21.00;18.00;;;;;11.24;68.99;101355.47;5036337;28;45289;-45
2022/01/02 05:14:53;;;;;;;;;23.00;22.33;;;;;11.23;69.04;101367.94;5036300;28;45227;-46
2022/01/02 05:17:18;;;;;;;;;25.00;19.67;;;;;11.22;69.10;101346.78;5036376;28;45466;-46
2022/01/02 05:19:44;;;;;;;;;30.00;24.00;;;;;11.19;68.87;101366.53;5039304;28;46015;-51
2022/01/02 05:22:09;;;;;;;;;30.67;23.00;;;;;11.20;68.81;101378.88;5039522;28;45317;-44
2022/01/02 05:24:34;;;;;;;;;21.00;17.00;;;;;11.20;68.73;101386.84;5039279;28;45729;-48
2022/01/02 05:27:00;;;;;;;;;21.67;17.67;;;;;11.22;68.66;101392.06;5039726;28;45213;-48
2022/01/02 05:29:25;;;;;;;;;26.00;20.00;;;;;11.23;68.66;101386.59;5038231;28;47151;-45
2022/01/02 05:31:51;;;;;;;;;27.67;21.00;;;;;11.29;68.88;101373.69;5021415;28;45342;-44
2022/01/02 05:34:16;;;;;;;;;23.00;21.33;;;;;11.31;68.67;101361.09;5039316;28;45349;-50
2022/01/02 05:36:48;;;;;;;;;26.00;19.33;;;;;11.30;68.49;101362.94;5039843;28;45450;-45
2022/01/02 05:39:15;;;;;;;;;18.33;16.00;;;;;11.31;68.80;101358.44;5039274;28;47246;-45
2022/01/02 05:41:40;;;;;;;;;15.33;13.00;;;;;11.30;68.46;101368.25;5039175;28;45244;-50
2022/01/02 05:44:06;;;;;;;;;14.00;11.67;;;;;11.31;68.75;101355.78;5039333;28;45239;-52
2022/01/02 05:46:31;;;;;;;;;8.67;8.67;;;;;11.30;68.13;101359.44;5021602;28;45544;-47
2022/01/02 05:48:56;;;;;;;;;10.33;8.67;;;;;11.32;68.47;101368.13;5039106;28;46276;-53
2022/01/02 05:51:22;;;;;;;;;18.00;13.00;;;;;11.33;68.16;101369.78;5039299;28;45331;-49
2022/01/02 05:53:47;;;;;;;;;19.00;14.00;;;;;11.35;68.22;101368.69;5039292;28;45357;-51
2022/01/02 05:56:13;;;;;;;;;13.67;12.00;;;;;11.36;67.86;101374.84;5039442;28;45295;-50
2022/01/02 05:58:38;;;;;;;;;12.33;12.33;;;;;11.36;67.67;101373.03;5040252;28;46304;-46
2022/01/02 06:01:03;;;;;;;;;16.00;9.00;;;;;11.38;68.07;101380.91;5040111;28;45302;-49
2022/01/02 06:03:29;;;;;;;;;16.67;11.33;;;;;11.43;67.74;101386.66;5040277;28;45913;-47
2022/01/02 06:05:54;;;;;;;;;16.00;13.00;;;;;11.43;67.81;101392.81;5024208;28;45318;-46
2022/01/02 06:08:19;;;;;;;;;13.00;11.00;;;;;11.45;67.58;101374.03;5040478;28;46041;-45
2022/01/02 06:10:45;;;;;;;;;13.00;12.00;;;;;11.47;67.45;101385.41;5039044;28;45256;-45
2022/01/02 06:13:10;;;;;;;;;15.33;13.67;;;;;11.42;67.27;101359.19;5038963;28;45453;-48
2022/01/02 06:15:35;;;;;;;;;16.33;12.67;;;;;11.49;67.40;101346.13;5038954;28;45300;-50
2022/01/02 06:18:01;;;;;;;;;14.00;10.33;;;;;11.51;66.95;101362.84;5038359;28;46155;-46
2022/01/02 06:20:27;;;;;;;;;12.00;10.33;;;;;11.54;66.96;101357.22;5037622;28;45369;-46
2022/01/02 06:22:54;;;;;;;;;14.00;11.00;;;;;11.59;66.91;101365.66;5038820;28;45238;-47
2022/01/02 06:25:20;;;;;;;;;13.00;10.00;;;;;11.54;67.17;101319.91;5038943;28;45514;-44
2022/01/02 06:27:45;;;;;;;;;13.00;8.67;;;;;11.64;66.55;101358.09;5038043;28;45741;-48
2022/01/02 06:30:11;;;;;;;;;7.33;6.00;;;;;11.68;66.63;101380.81;5038172;28;45449;-48
2022/01/02 06:32:36;;;;;;;;;9.00;8.00;;;;;11.71;66.50;101359.22;5038782;28;45345;-46
2022/01/02 06:35:02;;;;;;;;;11.00;8.33;;;;;11.75;66.32;101367.75;5038770;28;45450;-47
2022/01/02 06:37:27;;;;;;;;;16.33;8.67;;;;;11.79;66.68;101382.50;5038467;28;45462;-48
2022/01/02 06:39:53;;;;;;;;;16.33;13.00;;;;;11.79;65.83;101387.81;5038560;28;45514;-53
2022/01/02 06:42:18;;;;;;;;;10.33;8.33;;;;;11.85;66.33;101378.47;5038651;28;45419;-46
2022/01/02 06:44:43;;;;;;;;;14.33;11.00;;;;;11.89;65.86;101383.41;5038653;28;45243;-47
2022/01/02 06:47:09;;;;;;;;;11.33;9.33;;;;;11.90;65.99;101369.06;5038303;28;46055;-44
2022/01/02 06:49:35;;;;;;;;;6.67;5.33;;;;;11.90;65.67;101374.41;5038571;28;45327;-45
2022/01/02 06:52:00;;;;;;;;;8.00;8.00;;;;;11.97;65.68;101393.38;5038417;28;45470;-45
2022/01/02 06:54:25;;;;;;;;;8.67;8.67;;;;;12.00;65.73;101393.06;5038707;28;45489;-51
2022/01/02 06:56:51;;;;;;;;;8.67;8.33;;;;;12.02;65.60;101390.28;5038149;28;46767;-47
2022/01/02 06:59:17;;;;;;;;;6.00;3.33;;;;;12.03;65.71;101384.78;5038248;28;45279;-48
2022/01/02 07:01:43;;;;;;;;;6.67;6.67;;;;;12.03;65.62;101390.13;5037714;28;45462;-45
2022/01/02 07:04:08;;;;;;;;;9.00;6.33;;;;;12.06;65.38;101383.69;5038216;28;45440;-45
2022/01/02 07:06:34;;;;;;;;;17.00;11.00;;;;;12.06;65.27;101378.34;5038195;28;46250;-46
2022/01/02 07:08:59;;;;;;;;;9.00;9.00;;;;;12.06;64.98;101375.69;5038229;28;45302;-53
2022/01/02 07:11:24;;;;;;;;;9.33;7.67;;;;;12.04;65.57;101375.81;5038323;28;45320;-50
2022/01/02 07:13:50;;;;;;;;;12.67;8.33;;;;;12.04;66.04;101386.47;5038548;28;45433;-53
2022/01/02 07:16:15;;;;;;;;;13.67;12.33;;;;;12.01;65.59;101392.09;5037997;28;46261;-46
2022/01/02 07:18:40;;;;;;;;;14.33;8.33;;;;;11.99;65.91;101391.38;5037972;28;45279;-48
2022/01/02 07:21:06;;;;;;;;;7.67;7.67;;;;;11.96;66.35;101383.66;5038350;28;45252;-50
2022/01/02 07:23:31;;;;;;;;;13.33;7.67;;;;;11.93;66.69;101390.13;5038385;28;45508;-44
2022/01/02 07:25:57;;;;;;;;;14.67;9.33;;;;;11.93;66.09;101397.28;5038026;28;45406;-46
2022/01/02 07:28:22;;;;;;;;;11.00;9.00;;;;;11.94;66.34;101396.31;5037681;28;45452;-49
2022/01/02 07:30:48;;;;;;;;;11.00;11.00;;;;;11.97;66.58;101402.19;5037703;28;45666;-45
2022/01/02 07:33:13;;;;;;;;;10.33;8.67;;;;;12.03;66.42;101414.13;5037894;28;45259;-49
2022/01/02 07:35:39;;;;;;;;;14.33;9.67;;;;;11.96;66.22;101400.50;5037193;28;45322;-45
2022/01/02 07:38:04;;;;;;;;;10.00;10.00;;;;;12.13;65.92;101412.28;5037210;28;45381;-45
2022/01/02 07:40:30;;;;;;;;;10.00;8.33;;;;;12.21;65.78;101408.91;5036876;28;45444;-45
2022/01/02 07:42:55;;;;;;;;;11.00;7.33;;;;;12.26;66.17;101419.16;5037749;28;45322;-51
2022/01/02 07:45:21;;;;;;;;;10.33;9.00;;;;;12.30;65.61;101421.41;5037319;28;46080;-52
2022/01/02 07:47:47;;;;;;;;;10.67;10.67;;;;;12.34;65.58;101429.97;5037365;28;45413;-45
2022/01/02 07:50:13;;;;;;;;;11.33;9.00;;;;;12.36;66.09;101431.53;5037260;28;45443;-46
2022/01/02 07:52:39;;;;;;;;;13.67;10.67;;;;;12.41;65.58;101441.78;5037690;28;45168;-54
2022/01/02 07:55:04;;;;;;;;;13.00;12.67;;;;;12.44;65.52;101445.00;5037216;28;46274;-49
2022/01/02 07:57:30;;;;;;;;;10.33;10.33;;;;;12.46;65.99;101448.38;5037124;28;45460;-44
2022/01/02 07:59:55;;;;;;;;;7.33;7.33;;;;;12.43;65.64;101451.34;5037115;28;45636;-44
2022/01/02 08:02:21;;;;;;;;;10.33;8.00;;;;;12.42;65.97;101462.13;5037402;28;45344;-47
2022/01/02 08:04:46;;;;;;;;;12.33;9.00;;;;;12.41;66.01;101473.78;5036883;28;45192;-45
2022/01/02 08:07:11;;;;;;;;;13.00;9.33;;;;;12.36;66.38;101468.88;5019345;28;45313;-52
2022/01/02 08:09:37;;;;;;;;;10.00;8.33;;;;;12.34;66.54;101473.50;5037158;28;45615;-53
2022/01/02 08:12:02;;;;;;;;;18.67;12.33;;;;;12.32;66.21;101483.50;5037232;28;45352;-46
2022/01/02 08:14:28;;;;;;;;;13.33;10.00;;;;;12.28;66.81;101489.25;5036948;28;46245;-49
2022/01/02 08:16:53;;;;;;;;;13.33;10.33;;;;;12.30;66.62;101495.28;5036940;28;45350;-53
2022/01/02 08:19:18;;;;;;;;;13.00;9.00;;;;;12.32;66.96;101490.66;5036650;28;45435;-54
2022/01/02 08:21:44;;;;;;;;;9.67;7.00;;;;;12.33;66.50;101481.66;5037307;28;45330;-50
2022/01/02 08:24:09;;;;;;;;;11.00;8.00;;;;;12.33;67.29;101487.84;5036709;28;46422;-51
2022/01/02 08:26:35;;;;;;;;;17.33;13.33;;;;;12.34;66.79;101486.84;5036124;28;45381;-55
2022/01/02 08:29:00;;;;;;;;;9.33;9.33;;;;;12.34;67.09;101472.66;5037018;28;45481;-53
2022/01/02 08:31:27;;;;;;;;;11.00;8.00;;;;;12.38;66.76;101493.59;5037229;28;45278;-51
2022/01/02 08:33:53;;;;;;;;;9.00;9.00;;;;;12.40;67.38;101490.78;5036689;28;46491;-53
2022/01/02 08:36:18;;;;;;;;;12.00;9.00;;;;;12.39;67.27;101481.94;5036536;28;45311;-48
2022/01/02 08:38:46;;;;;;;;;16.67;11.33;;;;;12.39;67.34;101475.78;5019189;28;45460;-43
2022/01/02 08:41:12;;;;;;;;;8.67;8.00;;;;;12.46;67.64;101483.06;5036806;28;45518;-44
2022/01/02 08:43:37;;;;;;;;;10.00;8.00;;;;;12.48;67.19;101481.09;5036536;28;46046;-45
2022/01/02 08:46:03;;;;;;;;;13.00;10.00;;;;;12.54;67.72;101485.03;5036419;28;45359;-46
2022/01/02 08:48:29;;;;;;;;;13.67;9.00;;;;;12.58;67.17;101481.09;5036631;28;45376;-44
2022/01/02 08:50:54;;;;;;;;;13.67;11.00;;;;;12.65;67.80;101484.03;5036886;28;45481;-46
2022/01/02 08:53:20;;;;;;;;;15.67;11.00;;;;;12.71;67.26;101486.13;5037858;28;46005;-46
2022/01/02 08:55:46;;;;;;;;;12.67;9.67;;;;;12.74;67.30;101493.88;5039956;28;45424;-46
2022/01/02 08:58:11;;;;;;;;;13.00;8.00;;;;;12.79;67.84;101496.09;5039929;28;45475;-46
2022/01/02 09:00:37;;;;;;;;;14.33;9.33;;;;;12.80;67.30;101495.13;5040221;28;45301;-45
2022/01/02 09:03:02;;;;;;;;;14.33;13.00;;;;;12.82;67.45;101496.66;5039923;28;46042;-46
2022/01/02 09:05:27;;;;;;;;;12.67;11.67;;;;;12.87;67.89;101506.91;5039742;28;45359;-46
2022/01/02 09:07:56;;;;;;;;;12.00;10.67;;;;;12.92;67.58;101515.34;5039147;28;45321;-46
2022/01/02 09:10:22;;;;;;;;;13.00;11.33;;;;;13.05;67.58;101515.03;5040080;28;45443;-47
2022/01/02 09:12:48;;;;;;;;;9.00;9.00;;;;;13.17;67.53;101517.38;5038993;28;45525;-48
2022/01/02 09:15:13;;;;;;;;;13.67;11.00;;;;;13.25;66.45;101516.69;5039491;28;45359;-46
2022/01/02 09:17:39;;;;;;;;;7.00;7.00;;;;;13.27;66.50;101522.72;5039481;28;45470;-44
2022/01/02 09:20:08;;;;;;;;;9.33;9.33;;;;;13.25;66.76;101521.22;5039343;28;45419;-45
2022/01/02 09:22:34;;;;;;;;;7.33;7.33;;;;;13.25;66.81;101523.88;5039523;28;46099;-48
2022/01/02 09:25:00;;;;;;;;;13.33;11.33;;;;;13.19;66.98;101511.91;5039357;28;45378;-47
2022/01/02 09:27:25;;;;;;;;;14.33;8.33;;;;;13.35;67.01;101511.31;5039800;28;45246;-50
2022/01/02 09:29:51;;;;;;;;;13.00;12.00;;;;;13.61;66.10;101527.53;5039682;28;45211;-48
2022/01/02 09:32:16;;;;;;;;;11.33;8.67;;;;;13.99;65.67;101531.88;5039398;28;46155;-48
2022/01/02 09:34:42;;;;;;;;;12.00;11.00;;;;;14.25;65.12;101534.66;5039700;28;45633;-47
2022/01/02 09:37:07;;;;;;;;;9.67;9.00;;;;;14.37;64.53;101532.63;5039133;28;45358;-46
2022/01/02 09:39:33;;;;;;;;;10.33;10.33;;;;;14.64;64.19;101545.09;5039565;28;45309;-49
2022/01/02 09:41:59;;;;;;;;;13.33;9.00;;;;;14.46;64.06;101529.84;5039063;28;45416;-49
2022/01/02 09:44:25;;;;;;;;;14.00;10.00;;;;;14.39;64.33;101539.47;5039173;28;45504;-49
2022/01/02 09:46:53;;;;;;;;;10.00;8.00;;;;;14.27;64.46;101532.66;5039238;28;45433;-46
2022/01/02 09:49:22;;;;;;;;;11.33;9.00;;;;;14.70;63.73;101481.03;5039334;28;45318;-47
2022/01/02 09:51:48;;;;;;;;;8.00;4.00;;;;;16.15;60.88;101534.78;5038977;28;46144;-48
2022/01/02 09:54:13;;;;;;;;;10.33;10.33;;;;;17.17;58.09;101503.94;5038900;28;45394;-48
2022/01/02 09:56:39;;;;;;;;;10.00;9.00;;;;;18.34;54.85;101523.81;5039150;28;45349;-45
2022/01/02 09:59:04;;;;;;;;;11.33;10.33;;;;;18.98;54.85;101526.19;5039384;28;45316;-45
2022/01/02 10:01:32;;;;;;;;;14.00;10.00;;;;;19.50;52.90;101519.91;5038794;28;46122;-46
2022/01/02 10:03:58;;;;;;;;;9.67;7.00;;;;;20.19;50.10;101527.69;5038466;28;45420;-45
2022/01/02 10:06:48;;;;;;;;;9.67;7.00;;;;;20.99;48.15;101521.19;5038805;28;45310;-47
2022/01/02 10:09:37;;;;;;;;;8.33;6.67;;;;;21.85;46.04;101534.41;5039188;28;45321;-46
2022/01/02 10:12:28;;;;;;;;;8.50;8.00;;;;;22.57;44.26;101525.69;4957636;28;46912;-48
2022/01/02 10:15:19;;;;;;;;;9.50;6.75;;;;;21.58;46.87;101536.19;4957713;28;45371;-44
2022/01/02 10:17:53;;;;;;;;;8.50;7.00;;;;;22.49;45.02;101534.00;4957754;28;45456;-46
2022/01/02 10:20:20;;;;;;;;;8.00;7.00;;;;;23.03;46.11;101537.63;4972959;28;45313;-45
2022/01/02 10:23:04;;;;;;;;;11.50;10.75;;;;;21.48;46.25;101531.09;4976715;28;46131;-53
2022/01/02 10:25:38;;;;;;;;;9.00;8.25;;;;;20.41;47.84;101536.63;4977012;28;45464;-54
2022/01/02 10:28:25;;;;;;;;;7.25;7.25;;;;;19.82;51.89;101543.03;4977427;28;45332;-50
2022/01/02 10:31:07;;;;;;;;;10.00;8.75;;;;;19.47;49.61;101547.28;4977396;28;45526;-52
2022/01/02 10:33:57;;;;;;;;;11.50;9.50;;;;;19.19;51.80;101534.41;4976792;28;46465;-53
2022/01/02 10:36:40;;;;;;;;;7.25;7.00;;;;;19.13;52.20;101532.47;4976655;28;45460;-53
2022/01/02 10:39:10;;;;;;;;;10.00;7.00;;;;;19.08;51.20;101539.41;4976525;28;45499;-54
2022/01/02 10:41:38;;;;;;;;;8.25;7.00;;;;;18.97;51.53;101543.41;4977090;28;45417;-51
2022/01/02 10:44:22;;;;;;;;;11.25;6.00;;;;;18.79;51.83;101535.63;4976604;28;46683;-53
2022/01/02 10:47:05;;;;;;;;;6.00;6.00;;;;;18.46;52.62;101540.41;4976990;28;45475;-54
2022/01/02 10:49:55;;;;;;;;;7.00;6.00;;;;;18.08;53.04;101526.84;5017988;28;45420;-55
2022/01/02 10:52:26;;;;;;;;;5.00;5.00;;;;;17.87;53.55;101543.59;5038488;28;45345;-52
2022/01/02 10:54:51;;;;;;;;;8.00;6.25;;;;;17.58;54.26;101535.28;5038063;28;46116;-53
2022/01/02 10:57:17;;;;;;;;;10.50;5.50;;;;;17.32;54.72;101548.94;5038171;28;45286;-50
2022/01/02 10:59:44;;;;;;;;;7.00;7.00;;;;;17.02;55.72;101542.44;5038718;28;45440;-51
2022/01/02 11:02:12;;;;;;;;;8.67;5.00;;;;;16.81;56.26;101538.44;5038643;28;45426;-52
2022/01/02 11:04:49;;;;;;;;;8.67;6.00;;;;;16.59;56.87;101539.88;5038502;28;46118;-52
2022/01/02 11:07:20;;;;;;;;;7.33;5.00;;;;;16.42;57.81;101544.41;5038150;28;45505;-52
2022/01/02 11:09:48;;;;;;;;;3.00;3.00;;;;;16.25;58.16;101541.84;5038210;28;45246;-54
2022/01/02 11:12:13;;;;;;;;;5.00;4.00;;;;;16.11;58.54;101538.81;5036836;28;45333;-50
2022/01/02 11:14:40;;;;;;;;;13.33;6.67;;;;;15.93;58.92;101538.09;5037553;28;45297;-54
2022/01/02 11:17:06;;;;;;;;;5.00;4.67;;;;;15.83;59.60;101545.41;5036969;28;45286;-51
2022/01/02 11:19:32;;;;;;;;;6.67;4.67;;;;;15.76;59.89;101549.72;5037566;28;45369;-51
2022/01/02 11:21:59;;;;;;;;;3.67;3.67;;;;;15.61;60.04;101528.00;5038000;28;45372;-47
2022/01/02 11:24:28;;;;;;;;;4.67;3.67;;;;;15.64;60.50;101547.34;5036710;28;46262;-50